sensor_id;sensor_type;location;lat;lon;timestamp;P1;durP1;ratioP1;P2;durP2;ratioP2
28252;SDS011;15515;45.588;5.276;2022-12-18T07:03:56;37.55;;;18.95;;
28252;SDS011;15515;45.588;5.276;2022-12-18T07:06:24;41.20;;;21.33;;
28252;SDS011;15515;45.588;5.276;2022-12-18T07:08:53;43.97;;;17.98;;
28252;SDS011;15515;45.588;5.276;2022-12-18T07:11:21;37.45;;;19.83;;
28252;SDS011;15515;45.588;5.276;2022-12-18T07:13:48;34.15;;;19.05;;
28252;SDS011;15515;45.588;5.276;2022-12-18T07:16:17;38.15;;;20.08;;
28252;SDS011;15515;45.588;5.276;2022-12-18T07:18:49;35.30;;;19.88;;
28252;SDS011;15515;45.588;5.276;2022-12-18T07:21:18;37.08;;;18.95;;
28252;SDS011;15515;45.588;5.276;2022-12-18T07:23:46;37.22;;;19.90;;
28252;SDS011;15515;45.588;5.276;2022-12-18T07:26:15;32.60;;;18.15;;
28252;SDS011;15515;45.588;5.276;2022-12-18T07:28:43;36.53;;;20.02;;
28252;SDS011;15515;45.588;5.276;2022-12-18T07:31:16;35.38;;;19.60;;
28252;SDS011;15515;45.588;5.276;2022-12-18T07:33:44;39.42;;;19.67;;
28252;SDS011;15515;45.588;5.276;2022-12-18T07:36:11;39.70;;;19.65;;
28252;SDS011;15515;45.588;5.276;2022-12-18T07:38:39;33.95;;;18.58;;
28252;SDS011;15515;45.588;5.276;2022-12-18T07:41:08;37.55;;;21.40;;
28252;SDS011;15515;45.588;5.276;2022-12-18T07:43:36;38.72;;;20.58;;
28252;SDS011;15515;45.588;5.276;2022-12-18T07:46:05;40.47;;;21.00;;
28252;SDS011;15515;45.588;5.276;2022-12-18T07:48:32;36.92;;;20.60;;
28252;SDS011;15515;45.588;5.276;2022-12-18T07:51:01;35.78;;;19.77;;
28252;SDS011;15515;45.588;5.276;2022-12-18T07:53:29;41.08;;;21.15;;
28252;SDS011;15515;45.588;5.276;2022-12-18T07:55:56;35.88;;;20.27;;
28252;SDS011;15515;45.588;5.276;2022-12-18T07:58:46;34.33;;;18.15;;
28252;SDS011;15515;45.588;5.276;2022-12-18T08:01:14;34.38;;;18.98;;
28252;SDS011;15515;45.588;5.276;2022-12-18T08:03:41;35.45;;;19.55;;
28252;SDS011;15515;45.588;5.276;2022-12-18T08:06:09;36.60;;;18.75;;
28252;SDS011;15515;45.588;5.276;2022-12-18T08:08:37;31.92;;;18.30;;
28252;SDS011;15515;45.588;5.276;2022-12-18T08:11:07;31.85;;;17.10;;
28252;SDS011;15515;45.588;5.276;2022-12-18T08:13:34;34.28;;;17.88;;
28252;SDS011;15515;45.588;5.276;2022-12-18T08:16:03;30.33;;;16.95;;
28252;SDS011;15515;45.588;5.276;2022-12-18T08:18:35;31.27;;;18.27;;
28252;SDS011;15515;45.588;5.276;2022-12-18T08:23:36;28.50;;;15.85;;
28252;SDS011;15515;45.588;5.276;2022-12-18T08:26:07;33.58;;;18.13;;
28252;SDS011;15515;45.588;5.276;2022-12-18T08:28:35;30.92;;;16.25;;
28252;SDS011;15515;45.588;5.276;2022-12-18T08:31:03;30.00;;;16.33;;
28252;SDS011;15515;45.588;5.276;2022-12-18T08:33:30;30.35;;;14.27;;
28252;SDS011;15515;45.588;5.276;2022-12-18T08:35:59;30.33;;;14.25;;
28252;SDS011;15515;45.588;5.276;2022-12-18T08:38:26;26.60;;;14.60;;
28252;SDS011;15515;45.588;5.276;2022-12-18T08:41:01;26.67;;;13.95;;
28252;SDS011;15515;45.588;5.276;2022-12-18T08:43:29;26.92;;;15.35;;
28252;SDS011;15515;45.588;5.276;2022-12-18T08:46:15;24.23;;;13.48;;
28252;SDS011;15515;45.588;5.276;2022-12-18T08:48:42;24.90;;;14.05;;
28252;SDS011;15515;45.588;5.276;2022-12-18T08:51:10;14.23;;;6.88;;
28252;SDS011;15515;45.588;5.276;2022-12-18T08:53:37;23.63;;;12.90;;
28252;SDS011;15515;45.588;5.276;2022-12-18T08:56:05;19.73;;;10.98;;
28252;SDS011;15515;45.588;5.276;2022-12-18T08:58:33;18.25;;;10.27;;
28252;SDS011;15515;45.588;5.276;2022-12-18T09:01:01;18.52;;;10.73;;
28252;SDS011;15515;45.588;5.276;2022-12-18T09:03:28;19.38;;;10.77;;
28252;SDS011;15515;45.588;5.276;2022-12-18T09:05:56;24.00;;;14.35;;
28252;SDS011;15515;45.588;5.276;2022-12-18T09:08:23;20.38;;;12.50;;
28252;SDS011;15515;45.588;5.276;2022-12-18T09:10:51;21.38;;;12.77;;
28252;SDS011;15515;45.588;5.276;2022-12-18T09:13:18;20.35;;;10.85;;
28252;SDS011;15515;45.588;5.276;2022-12-18T09:15:47;23.25;;;14.07;;
28252;SDS011;15515;45.588;5.276;2022-12-18T09:18:16;18.17;;;12.77;;
28252;SDS011;15515;45.588;5.276;2022-12-18T09:20:44;23.42;;;11.88;;
28252;SDS011;15515;45.588;5.276;2022-12-18T09:23:12;19.25;;;11.25;;
28252;SDS011;15515;45.588;5.276;2022-12-18T09:25:39;18.52;;;12.05;;
28252;SDS011;15515;45.588;5.276;2022-12-18T09:28:25;22.45;;;13.27;;
28252;SDS011;15515;45.588;5.276;2022-12-18T09:30:53;18.45;;;12.10;;
28252;SDS011;15515;45.588;5.276;2022-12-18T09:33:21;18.38;;;12.25;;
28252;SDS011;15515;45.588;5.276;2022-12-18T09:35:48;17.60;;;11.63;;
28252;SDS011;15515;45.588;5.276;2022-12-18T09:38:16;18.83;;;12.10;;
28252;SDS011;15515;45.588;5.276;2022-12-18T09:43:14;18.27;;;11.77;;
28252;SDS011;15515;45.588;5.276;2022-12-18T09:45:44;16.05;;;11.18;;
28252;SDS011;15515;45.588;5.276;2022-12-18T09:48:18;18.00;;;11.75;;
28252;SDS011;15515;45.588;5.276;2022-12-18T09:50:46;17.52;;;11.52;;
28252;SDS011;15515;45.588;5.276;2022-12-18T09:53:19;16.25;;;11.25;;
28252;SDS011;15515;45.588;5.276;2022-12-18T09:55:49;17.52;;;11.75;;
28252;SDS011;15515;45.588;5.276;2022-12-18T09:58:26;15.95;;;10.50;;
28252;SDS011;15515;45.588;5.276;2022-12-18T10:00:57;13.88;;;9.85;;
28252;SDS011;15515;45.588;5.276;2022-12-18T10:03:25;16.90;;;10.85;;
28252;SDS011;15515;45.588;5.276;2022-12-18T10:11:11;17.45;;;11.48;;
28252;SDS011;15515;45.588;5.276;2022-12-18T10:13:46;17.23;;;11.18;;
28252;SDS011;15515;45.588;5.276;2022-12-18T10:17:00;17.98;;;12.75;;
28252;SDS011;15515;45.588;5.276;2022-12-18T10:21:51;18.42;;;12.02;;
28252;SDS011;15515;45.588;5.276;2022-12-18T10:25:10;17.85;;;11.43;;
28252;SDS011;15515;45.588;5.276;2022-12-18T10:27:15;19.73;;;12.35;;
28252;SDS011;15515;45.588;5.276;2022-12-18T10:29:43;18.42;;;12.73;;
28252;SDS011;15515;45.588;5.276;2022-12-18T10:32:15;17.20;;;11.82;;
28252;SDS011;15515;45.588;5.276;2022-12-18T10:34:45;18.27;;;11.87;;
28252;SDS011;15515;45.588;5.276;2022-12-18T10:37:17;19.30;;;11.82;;
28252;SDS011;15515;45.588;5.276;2022-12-18T10:39:45;19.63;;;12.48;;
28252;SDS011;15515;45.588;5.276;2022-12-18T10:42:18;17.83;;;12.73;;
28252;SDS011;15515;45.588;5.276;2022-12-18T10:44:46;16.90;;;11.75;;
28252;SDS011;15515;45.588;5.276;2022-12-18T10:47:27;17.63;;;12.35;;
28252;SDS011;15515;45.588;5.276;2022-12-18T10:49:55;20.15;;;12.77;;
28252;SDS011;15515;45.588;5.276;2022-12-18T10:52:23;18.35;;;12.00;;
28252;SDS011;15515;45.588;5.276;2022-12-18T10:54:52;20.77;;;13.40;;
28252;SDS011;15515;45.588;5.276;2022-12-18T10:59:55;19.30;;;12.75;;
28252;SDS011;15515;45.588;5.276;2022-12-18T11:02:36;17.45;;;11.85;;
28252;SDS011;15515;45.588;5.276;2022-12-18T11:05:22;18.20;;;12.75;;
28252;SDS011;15515;45.588;5.276;2022-12-18T11:07:50;19.52;;;13.48;;
28252;SDS011;15515;45.588;5.276;2022-12-18T11:10:21;17.55;;;12.20;;
28252;SDS011;15515;45.588;5.276;2022-12-18T11:12:49;15.57;;;11.25;;
28252;SDS011;15515;45.588;5.276;2022-12-18T11:15:19;14.98;;;11.48;;
28252;SDS011;15515;45.588;5.276;2022-12-18T11:17:50;15.15;;;10.65;;
28252;SDS011;15515;45.588;5.276;2022-12-18T11:20:39;13.43;;;10.05;;
28252;SDS011;15515;45.588;5.276;2022-12-18T11:23:10;15.85;;;10.40;;
28252;SDS011;15515;45.588;5.276;2022-12-18T11:25:39;15.57;;;10.27;;
28252;SDS011;15515;45.588;5.276;2022-12-18T11:33:36;13.18;;;9.88;;
28252;SDS011;15515;45.588;5.276;2022-12-18T11:36:04;12.50;;;9.23;;
28252;SDS011;15515;45.588;5.276;2022-12-18T11:38:35;11.65;;;8.88;;
28252;SDS011;15515;45.588;5.276;2022-12-18T11:44:11;13.98;;;9.68;;
28252;SDS011;15515;45.588;5.276;2022-12-18T11:46:44;12.23;;;8.05;;
28252;SDS011;15515;45.588;5.276;2022-12-18T11:49:28;12.85;;;8.98;;
28252;SDS011;15515;45.588;5.276;2022-12-18T11:52:10;13.10;;;8.90;;
28252;SDS011;15515;45.588;5.276;2022-12-18T11:54:42;9.30;;;7.15;;
28252;SDS011;15515;45.588;5.276;2022-12-18T11:57:29;10.25;;;7.05;;
28252;SDS011;15515;45.588;5.276;2022-12-18T12:02:42;8.95;;;7.20;;
28252;SDS011;15515;45.588;5.276;2022-12-18T12:07:59;16.13;;;8.15;;
28252;SDS011;15515;45.588;5.276;2022-12-18T12:21:15;8.65;;;6.20;;
28252;SDS011;15515;45.588;5.276;2022-12-18T12:23:51;9.65;;;5.60;;
28252;SDS011;15515;45.588;5.276;2022-12-18T12:34:16;8.35;;;5.88;;
28252;SDS011;15515;45.588;5.276;2022-12-18T12:39:33;8.20;;;6.18;;
28252;SDS011;15515;45.588;5.276;2022-12-18T12:42:03;9.23;;;6.45;;
28252;SDS011;15515;45.588;5.276;2022-12-18T12:44:51;11.00;;;6.40;;
28252;SDS011;15515;45.588;5.276;2022-12-18T12:47:31;8.48;;;6.15;;
28252;SDS011;15515;45.588;5.276;2022-12-18T12:49:59;9.43;;;6.78;;
28252;SDS011;15515;45.588;5.276;2022-12-18T12:52:45;8.65;;;6.50;;
28252;SDS011;15515;45.588;5.276;2022-12-18T12:55:17;8.07;;;6.32;;
28252;SDS011;15515;45.588;5.276;2022-12-18T12:57:48;7.43;;;6.63;;
28252;SDS011;15515;45.588;5.276;2022-12-18T13:00:19;8.55;;;6.25;;
28252;SDS011;15515;45.588;5.276;2022-12-18T13:05:38;7.95;;;6.53;;
28252;SDS011;15515;45.588;5.276;2022-12-18T13:10:36;10.60;;;7.30;;
28252;SDS011;15515;45.588;5.276;2022-12-18T13:18:13;9.02;;;6.93;;
28252;SDS011;15515;45.588;5.276;2022-12-18T13:20:42;9.93;;;6.35;;
28252;SDS011;15515;45.588;5.276;2022-12-18T13:25:46;9.18;;;6.32;;
28252;SDS011;15515;45.588;5.276;2022-12-18T13:28:15;7.85;;;6.68;;
28252;SDS011;15515;45.588;5.276;2022-12-18T13:30:44;9.10;;;6.40;;
28252;SDS011;15515;45.588;5.276;2022-12-18T13:40:53;9.98;;;6.60;;
28252;SDS011;15515;45.588;5.276;2022-12-18T13:45:50;10.02;;;7.10;;
28252;SDS011;15515;45.588;5.276;2022-12-18T13:48:26;10.98;;;7.32;;
28252;SDS011;15515;45.588;5.276;2022-12-18T13:50:58;12.02;;;7.53;;
28252;SDS011;15515;45.588;5.276;2022-12-18T13:53:27;11.87;;;7.60;;
28252;SDS011;15515;45.588;5.276;2022-12-18T13:55:55;12.55;;;7.18;;
28252;SDS011;15515;45.588;5.276;2022-12-18T13:58:22;11.07;;;7.20;;
28252;SDS011;15515;45.588;5.276;2022-12-18T14:00:50;12.93;;;7.55;;
28252;SDS011;15515;45.588;5.276;2022-12-18T14:03:19;10.57;;;7.00;;
28252;SDS011;15515;45.588;5.276;2022-12-18T14:05:52;8.85;;;6.85;;
28252;SDS011;15515;45.588;5.276;2022-12-18T14:08:20;9.45;;;6.45;;
28252;SDS011;15515;45.588;5.276;2022-12-18T14:10:48;12.75;;;7.10;;
28252;SDS011;15515;45.588;5.276;2022-12-18T14:13:27;9.65;;;6.18;;
28252;SDS011;15515;45.588;5.276;2022-12-18T14:15:56;11.27;;;7.00;;
28252;SDS011;15515;45.588;5.276;2022-12-18T14:18:38;8.82;;;6.53;;
28252;SDS011;15515;45.588;5.276;2022-12-18T14:21:23;9.57;;;7.55;;
28252;SDS011;15515;45.588;5.276;2022-12-18T14:24:38;12.73;;;7.50;;
28252;SDS011;15515;45.588;5.276;2022-12-18T14:26:41;10.88;;;7.88;;
28252;SDS011;15515;45.588;5.276;2022-12-18T14:31:45;12.00;;;7.97;;
28252;SDS011;15515;45.588;5.276;2022-12-18T14:34:16;16.15;;;8.35;;
28252;SDS011;15515;45.588;5.276;2022-12-18T14:36:52;11.30;;;8.00;;
28252;SDS011;15515;45.588;5.276;2022-12-18T14:39:21;14.82;;;8.93;;
28252;SDS011;15515;45.588;5.276;2022-12-18T14:41:51;11.90;;;8.95;;
28252;SDS011;15515;45.588;5.276;2022-12-18T14:44:19;15.93;;;9.75;;
28252;SDS011;15515;45.588;5.276;2022-12-18T14:46:48;17.58;;;10.00;;
28252;SDS011;15515;45.588;5.276;2022-12-18T14:49:29;12.52;;;8.25;;
28252;SDS011;15515;45.588;5.276;2022-12-18T14:52:04;14.15;;;8.73;;
28252;SDS011;15515;45.588;5.276;2022-12-18T14:54:32;14.27;;;9.30;;
28252;SDS011;15515;45.588;5.276;2022-12-18T14:57:02;15.88;;;9.27;;
28252;SDS011;15515;45.588;5.276;2022-12-18T14:59:30;13.82;;;9.77;;
28252;SDS011;15515;45.588;5.276;2022-12-18T15:02:01;16.70;;;9.63;;
28252;SDS011;15515;45.588;5.276;2022-12-18T15:04:33;14.15;;;9.98;;
28252;SDS011;15515;45.588;5.276;2022-12-18T15:07:23;15.10;;;9.82;;
28252;SDS011;15515;45.588;5.276;2022-12-18T15:12:38;16.17;;;10.38;;
28252;SDS011;15515;45.588;5.276;2022-12-18T15:15:41;15.80;;;10.27;;
28252;SDS011;15515;45.588;5.276;2022-12-18T15:20:53;14.65;;;10.55;;
28252;SDS011;15515;45.588;5.276;2022-12-18T15:23:23;13.57;;;9.73;;
28252;SDS011;15515;45.588;5.276;2022-12-18T15:26:04;13.80;;;9.80;;
28252;SDS011;15515;45.588;5.276;2022-12-18T15:28:51;17.70;;;10.60;;
28252;SDS011;15515;45.588;5.276;2022-12-18T15:31:28;12.95;;;9.23;;
28252;SDS011;15515;45.588;5.276;2022-12-18T15:36:25;16.58;;;9.98;;
28252;SDS011;15515;45.588;5.276;2022-12-18T15:38:56;14.60;;;9.43;;
28252;SDS011;15515;45.588;5.276;2022-12-18T15:41:24;16.00;;;10.25;;
28252;SDS011;15515;45.588;5.276;2022-12-18T15:43:52;16.90;;;9.18;;
28252;SDS011;15515;45.588;5.276;2022-12-18T15:46:20;14.98;;;9.55;;
28252;SDS011;15515;45.588;5.276;2022-12-18T15:48:49;17.33;;;10.77;;
28252;SDS011;15515;45.588;5.276;2022-12-18T15:53:50;17.65;;;10.55;;
28252;SDS011;15515;45.588;5.276;2022-12-18T15:56:18;16.65;;;9.95;;
28252;SDS011;15515;45.588;5.276;2022-12-18T15:59:08;16.92;;;10.77;;
28252;SDS011;15515;45.588;5.276;2022-12-18T16:01:37;17.88;;;12.52;;
28252;SDS011;15515;45.588;5.276;2022-12-18T16:04:08;18.20;;;11.48;;
28252;SDS011;15515;45.588;5.276;2022-12-18T16:06:37;19.17;;;12.45;;
28252;SDS011;15515;45.588;5.276;2022-12-18T16:09:16;17.65;;;11.23;;
28252;SDS011;15515;45.588;5.276;2022-12-18T16:11:47;19.05;;;10.70;;
28252;SDS011;15515;45.588;5.276;2022-12-18T16:14:24;15.90;;;10.77;;
28252;SDS011;15515;45.588;5.276;2022-12-18T16:16:57;16.70;;;10.80;;
28252;SDS011;15515;45.588;5.276;2022-12-18T16:19:25;16.20;;;10.93;;
28252;SDS011;15515;45.588;5.276;2022-12-18T16:21:54;15.00;;;10.07;;
28252;SDS011;15515;45.588;5.276;2022-12-18T16:24:25;12.63;;;8.70;;
28252;SDS011;15515;45.588;5.276;2022-12-18T16:26:53;15.82;;;9.93;;
28252;SDS011;15515;45.588;5.276;2022-12-18T16:29:24;14.70;;;9.82;;
28252;SDS011;15515;45.588;5.276;2022-12-18T16:31:54;16.73;;;10.35;;
28252;SDS011;15515;45.588;5.276;2022-12-18T16:34:24;16.10;;;10.25;;
28252;SDS011;15515;45.588;5.276;2022-12-18T16:36:56;20.20;;;11.02;;
28252;SDS011;15515;45.588;5.276;2022-12-18T16:39:28;16.38;;;11.25;;
28252;SDS011;15515;45.588;5.276;2022-12-18T16:41:58;19.10;;;11.23;;
28252;SDS011;15515;45.588;5.276;2022-12-18T16:44:26;15.70;;;10.57;;
28252;SDS011;15515;45.588;5.276;2022-12-18T16:46:53;20.50;;;11.80;;
28252;SDS011;15515;45.588;5.276;2022-12-18T16:49:22;20.77;;;11.45;;
28252;SDS011;15515;45.588;5.276;2022-12-18T16:51:49;17.48;;;10.73;;
28252;SDS011;15515;45.588;5.276;2022-12-18T16:54:17;19.45;;;11.63;;
28252;SDS011;15515;45.588;5.276;2022-12-18T16:56:45;19.75;;;11.93;;
28252;SDS011;15515;45.588;5.276;2022-12-18T16:59:15;18.35;;;11.85;;
28252;SDS011;15515;45.588;5.276;2022-12-18T17:01:42;18.60;;;11.18;;
28252;SDS011;15515;45.588;5.276;2022-12-18T17:04:10;19.13;;;11.70;;
28252;SDS011;15515;45.588;5.276;2022-12-18T17:06:40;17.02;;;11.38;;
28252;SDS011;15515;45.588;5.276;2022-12-18T17:09:12;18.40;;;11.77;;
28252;SDS011;15515;45.588;5.276;2022-12-18T17:11:41;17.92;;;11.98;;
28252;SDS011;15515;45.588;5.276;2022-12-18T17:14:09;17.65;;;11.27;;
28252;SDS011;15515;45.588;5.276;2022-12-18T17:16:37;17.02;;;10.82;;
28252;SDS011;15515;45.588;5.276;2022-12-18T17:19:05;15.27;;;10.90;;
28252;SDS011;15515;45.588;5.276;2022-12-18T17:21:35;17.55;;;11.50;;
28252;SDS011;15515;45.588;5.276;2022-12-18T17:24:02;17.95;;;11.90;;
28252;SDS011;15515;45.588;5.276;2022-12-18T17:26:30;17.65;;;11.35;;
28252;SDS011;15515;45.588;5.276;2022-12-18T17:28:58;18.20;;;11.98;;
28252;SDS011;15515;45.588;5.276;2022-12-18T17:31:26;17.08;;;11.20;;
28252;SDS011;15515;45.588;5.276;2022-12-18T17:33:54;17.88;;;11.68;;
28252;SDS011;15515;45.588;5.276;2022-12-18T17:36:22;18.25;;;11.43;;
28252;SDS011;15515;45.588;5.276;2022-12-18T17:38:50;23.98;;;12.40;;
28252;SDS011;15515;45.588;5.276;2022-12-18T17:41:18;18.50;;;12.43;;
28252;SDS011;15515;45.588;5.276;2022-12-18T17:43:50;17.23;;;12.02;;
28252;SDS011;15515;45.588;5.276;2022-12-18T17:46:18;19.45;;;12.43;;
28252;SDS011;15515;45.588;5.276;2022-12-18T17:48:45;18.67;;;11.88;;
28252;SDS011;15515;45.588;5.276;2022-12-18T17:51:13;18.98;;;11.98;;
28252;SDS011;15515;45.588;5.276;2022-12-18T17:53:41;19.55;;;12.63;;
28252;SDS011;15515;45.588;5.276;2022-12-18T17:56:11;16.65;;;11.48;;
28252;SDS011;15515;45.588;5.276;2022-12-18T17:58:39;16.52;;;11.77;;
28252;SDS011;15515;45.588;5.276;2022-12-18T18:01:06;19.63;;;11.43;;
28252;SDS011;15515;45.588;5.276;2022-12-18T18:03:34;20.10;;;12.40;;
28252;SDS011;15515;45.588;5.276;2022-12-18T18:06:05;21.25;;;13.02;;
28252;SDS011;15515;45.588;5.276;2022-12-18T18:08:33;20.42;;;11.80;;
28252;SDS011;15515;45.588;5.276;2022-12-18T18:11:05;22.73;;;13.32;;
28252;SDS011;15515;45.588;5.276;2022-12-18T18:13:52;22.83;;;13.55;;
28252;SDS011;15515;45.588;5.276;2022-12-18T18:16:34;23.35;;;13.57;;
28252;SDS011;15515;45.588;5.276;2022-12-18T18:19:03;21.73;;;13.00;;
28252;SDS011;15515;45.588;5.276;2022-12-18T18:21:31;19.05;;;12.60;;
28252;SDS011;15515;45.588;5.276;2022-12-18T18:23:59;18.08;;;12.38;;
28252;SDS011;15515;45.588;5.276;2022-12-18T18:26:29;18.38;;;13.30;;
28252;SDS011;15515;45.588;5.276;2022-12-18T18:28:57;20.10;;;12.63;;
28252;SDS011;15515;45.588;5.276;2022-12-18T18:31:26;23.55;;;13.93;;
28252;SDS011;15515;45.588;5.276;2022-12-18T18:33:54;25.42;;;14.25;;
28252;SDS011;15515;45.588;5.276;2022-12-18T18:36:22;21.85;;;13.45;;
28252;SDS011;15515;45.588;5.276;2022-12-18T18:38:50;32.42;;;18.83;;
28252;SDS011;15515;45.588;5.276;2022-12-18T18:41:18;34.90;;;20.33;;
28252;SDS011;15515;45.588;5.276;2022-12-18T18:43:47;30.58;;;19.00;;
28252;SDS011;15515;45.588;5.276;2022-12-18T20:15:17;17.50;;;11.60;;
